sensor_id;sensor_type;location;lat;lon;timestamp;pressure;altitude;pressure_sealevel;temperature;humidity
26563;BME280;14217;50.986;5.826;2022-10-17T00:01:58;100996.09;;;21.79;48.80
26563;BME280;14217;50.986;5.826;2022-10-17T00:07:00;100995.81;;;21.84;48.75
26563;BME280;14217;50.986;5.826;2022-10-17T00:12:02;101001.34;;;21.81;48.85
26563;BME280;14217;50.986;5.826;2022-10-17T00:17:05;100990.06;;;21.76;48.61
26563;BME280;14217;50.986;5.826;2022-10-17T00:22:07;100993.63;;;21.76;48.96
26563;BME280;14217;50.986;5.826;2022-10-17T00:27:08;100993.50;;;21.78;48.83
26563;BME280;14217;50.986;5.826;2022-10-17T00:32:11;100988.88;;;21.81;48.58
26563;BME280;14217;50.986;5.826;2022-10-17T00:37:13;100987.81;;;21.84;48.56
26563;BME280;14217;50.986;5.826;2022-10-17T00:42:15;100989.81;;;21.80;48.44
26563;BME280;14217;50.986;5.826;2022-10-17T00:47:19;100987.75;;;21.85;48.50
26563;BME280;14217;50.986;5.826;2022-10-17T00:52:25;100991.38;;;21.84;48.71
26563;BME280;14217;50.986;5.826;2022-10-17T00:57:30;100990.69;;;21.81;48.48
26563;BME280;14217;50.986;5.826;2022-10-17T01:02:32;100986.81;;;21.86;48.45
26563;BME280;14217;50.986;5.826;2022-10-17T01:07:34;100986.91;;;21.85;48.58
26563;BME280;14217;50.986;5.826;2022-10-17T01:12:47;100992.38;;;21.82;48.55
26563;BME280;14217;50.986;5.826;2022-10-17T01:18:10;101000.94;;;21.88;48.36
26563;BME280;14217;50.986;5.826;2022-10-17T01:23:23;100988.53;;;21.87;48.13
26563;BME280;14217;50.986;5.826;2022-10-17T01:34:28;100992.22;;;21.85;48.29
26563;BME280;14217;50.986;5.826;2022-10-17T01:39:45;100983.19;;;21.87;48.35
26563;BME280;14217;50.986;5.826;2022-10-17T01:49:52;100980.00;;;21.81;48.40
26563;BME280;14217;50.986;5.826;2022-10-17T01:55:31;100975.09;;;21.89;48.34
26563;BME280;14217;50.986;5.826;2022-10-17T02:00:34;100985.16;;;21.84;48.14
26563;BME280;14217;50.986;5.826;2022-10-17T02:05:40;100974.59;;;21.82;48.29
26563;BME280;14217;50.986;5.826;2022-10-17T02:11:05;100969.50;;;21.78;48.28
26563;BME280;14217;50.986;5.826;2022-10-17T02:22:03;100960.22;;;21.85;48.04
26563;BME280;14217;50.986;5.826;2022-10-17T02:27:22;100974.50;;;21.84;48.23
26563;BME280;14217;50.986;5.826;2022-10-17T02:32:35;100978.28;;;21.80;48.20
26563;BME280;14217;50.986;5.826;2022-10-17T02:37:42;100971.03;;;21.82;48.15
26563;BME280;14217;50.986;5.826;2022-10-17T02:42:47;100970.88;;;21.85;48.37
26563;BME280;14217;50.986;5.826;2022-10-17T02:47:57;100973.72;;;21.82;48.24
26563;BME280;14217;50.986;5.826;2022-10-17T02:53:16;100976.56;;;21.79;48.51
26563;BME280;14217;50.986;5.826;2022-10-17T02:58:25;100972.78;;;21.83;48.08
26563;BME280;14217;50.986;5.826;2022-10-17T03:03:30;100979.16;;;21.80;48.35
26563;BME280;14217;50.986;5.826;2022-10-17T03:08:32;100984.94;;;21.88;48.06
26563;BME280;14217;50.986;5.826;2022-10-17T03:13:34;100996.16;;;21.78;48.25
26563;BME280;14217;50.986;5.826;2022-10-17T03:18:40;100993.28;;;21.82;48.09
26563;BME280;14217;50.986;5.826;2022-10-17T03:23:46;100992.75;;;21.91;48.18
26563;BME280;14217;50.986;5.826;2022-10-17T03:28:48;101006.69;;;21.81;48.23
26563;BME280;14217;50.986;5.826;2022-10-17T03:33:54;101001.28;;;21.82;48.02
26563;BME280;14217;50.986;5.826;2022-10-17T03:38:56;101003.41;;;21.91;48.04
26563;BME280;14217;50.986;5.826;2022-10-17T03:43:58;101008.38;;;21.82;48.20
26563;BME280;14217;50.986;5.826;2022-10-17T03:49:00;100998.06;;;21.91;48.13
26563;BME280;14217;50.986;5.826;2022-10-17T03:54:02;101003.41;;;21.91;48.05
26563;BME280;14217;50.986;5.826;2022-10-17T03:59:04;101006.00;;;21.93;48.11
26563;BME280;14217;50.986;5.826;2022-10-17T04:04:06;101001.53;;;21.93;47.92
26563;BME280;14217;50.986;5.826;2022-10-17T04:09:09;101007.13;;;21.89;48.25
26563;BME280;14217;50.986;5.826;2022-10-17T04:14:11;101010.81;;;21.86;48.29
26563;BME280;14217;50.986;5.826;2022-10-17T04:19:13;101025.94;;;21.86;48.06
26563;BME280;14217;50.986;5.826;2022-10-17T04:24:15;101041.19;;;21.84;48.06
26563;BME280;14217;50.986;5.826;2022-10-17T04:29:17;101037.16;;;21.92;48.02
26563;BME280;14217;50.986;5.826;2022-10-17T04:34:19;101027.34;;;21.93;47.91
26563;BME280;14217;50.986;5.826;2022-10-17T04:39:20;101041.59;;;21.92;48.13
26563;BME280;14217;50.986;5.826;2022-10-17T04:44:22;101040.94;;;21.88;48.21
26563;BME280;14217;50.986;5.826;2022-10-17T04:49:24;101040.31;;;21.83;48.32
26563;BME280;14217;50.986;5.826;2022-10-17T04:54:26;101042.56;;;21.91;47.84
26563;BME280;14217;50.986;5.826;2022-10-17T04:59:28;101040.06;;;21.88;48.23
26563;BME280;14217;50.986;5.826;2022-10-17T05:04:30;101058.13;;;21.83;48.33
26563;BME280;14217;50.986;5.826;2022-10-17T05:09:31;101054.50;;;21.84;48.08
26563;BME280;14217;50.986;5.826;2022-10-17T05:14:33;101061.31;;;21.89;48.03
26563;BME280;14217;50.986;5.826;2022-10-17T05:19:35;101046.28;;;21.88;48.02
26563;BME280;14217;50.986;5.826;2022-10-17T05:24:37;101050.13;;;21.83;48.01
26563;BME280;14217;50.986;5.826;2022-10-17T05:29:39;101051.63;;;21.88;48.17
26563;BME280;14217;50.986;5.826;2022-10-17T05:34:41;101048.69;;;21.93;47.93
26563;BME280;14217;50.986;5.826;2022-10-17T05:39:43;101052.47;;;21.89;47.93
26563;BME280;14217;50.986;5.826;2022-10-17T05:44:51;101060.47;;;21.89;47.86
26563;BME280;14217;50.986;5.826;2022-10-17T05:49:53;101043.50;;;21.90;48.03
26563;BME280;14217;50.986;5.826;2022-10-17T05:54:55;101054.09;;;21.91;48.15
26563;BME280;14217;50.986;5.826;2022-10-17T05:59:57;101048.84;;;21.90;47.82
26563;BME280;14217;50.986;5.826;2022-10-17T06:04:59;101065.03;;;21.87;48.22
26563;BME280;14217;50.986;5.826;2022-10-17T06:10:01;101069.41;;;21.88;48.22
26563;BME280;14217;50.986;5.826;2022-10-17T06:15:03;101085.41;;;21.88;48.28
26563;BME280;14217;50.986;5.826;2022-10-17T06:20:05;101088.41;;;21.82;48.06
26563;BME280;14217;50.986;5.826;2022-10-17T06:25:08;101087.47;;;21.83;48.21
26563;BME280;14217;50.986;5.826;2022-10-17T06:30:10;101097.97;;;21.86;48.05
26563;BME280;14217;50.986;5.826;2022-10-17T06:35:12;101102.53;;;21.84;48.26
26563;BME280;14217;50.986;5.826;2022-10-17T06:40:14;101104.84;;;21.90;48.21
26563;BME280;14217;50.986;5.826;2022-10-17T06:45:17;101095.47;;;21.83;48.04
26563;BME280;14217;50.986;5.826;2022-10-17T06:50:19;101110.03;;;21.93;47.92
26563;BME280;14217;50.986;5.826;2022-10-17T06:55:21;101112.00;;;21.89;47.89
26563;BME280;14217;50.986;5.826;2022-10-17T07:00:23;101107.44;;;21.91;48.33
26563;BME280;14217;50.986;5.826;2022-10-17T07:05:27;101111.22;;;21.87;48.37
26563;BME280;14217;50.986;5.826;2022-10-17T07:10:28;101127.50;;;21.83;48.34
26563;BME280;14217;50.986;5.826;2022-10-17T07:15:30;101135.56;;;21.81;48.47
26563;BME280;14217;50.986;5.826;2022-10-17T07:20:33;101149.63;;;21.85;48.23
26563;BME280;14217;50.986;5.826;2022-10-17T07:25:35;101156.66;;;21.86;48.22
26563;BME280;14217;50.986;5.826;2022-10-17T07:30:40;101163.72;;;21.87;48.18
26563;BME280;14217;50.986;5.826;2022-10-17T07:35:43;101169.66;;;21.92;48.21
26563;BME280;14217;50.986;5.826;2022-10-17T07:40:44;101185.00;;;21.88;48.42
26563;BME280;14217;50.986;5.826;2022-10-17T07:45:46;101181.81;;;21.98;49.09
26563;BME280;14217;50.986;5.826;2022-10-17T07:50:49;101188.09;;;21.97;49.14
26563;BME280;14217;50.986;5.826;2022-10-17T07:55:51;101185.00;;;21.88;48.86
26563;BME280;14217;50.986;5.826;2022-10-17T08:00:52;101205.59;;;22.02;48.70
26563;BME280;14217;50.986;5.826;2022-10-17T08:05:59;101210.00;;;22.03;48.82
26563;BME280;14217;50.986;5.826;2022-10-17T08:11:06;101211.56;;;22.07;48.67
26563;BME280;14217;50.986;5.826;2022-10-17T08:16:10;101230.56;;;22.01;48.78
26563;BME280;14217;50.986;5.826;2022-10-17T08:21:12;101244.44;;;22.08;48.44
26563;BME280;14217;50.986;5.826;2022-10-17T08:26:14;101236.81;;;22.00;48.79
26563;BME280;14217;50.986;5.826;2022-10-17T08:31:18;101238.97;;;21.93;48.87
26563;BME280;14217;50.986;5.826;2022-10-17T08:36:20;101250.16;;;22.00;48.93
26563;BME280;14217;50.986;5.826;2022-10-17T08:47:13;101267.81;;;22.03;48.65
26563;BME280;14217;50.986;5.826;2022-10-17T08:52:45;101276.78;;;22.02;48.69
26563;BME280;14217;50.986;5.826;2022-10-17T08:57:49;101271.25;;;22.05;48.78
26563;BME280;14217;50.986;5.826;2022-10-17T09:03:14;101282.97;;;22.02;48.69
26563;BME280;14217;50.986;5.826;2022-10-17T09:08:43;101283.94;;;22.01;48.55
26563;BME280;14217;50.986;5.826;2022-10-17T09:19:35;101301.91;;;21.98;49.01
26563;BME280;14217;50.986;5.826;2022-10-17T09:24:48;101306.13;;;22.02;48.67
26563;BME280;14217;50.986;5.826;2022-10-17T09:30:13;101314.69;;;21.91;49.28
26563;BME280;14217;50.986;5.826;2022-10-17T09:35:27;101303.84;;;21.94;49.48
26563;BME280;14217;50.986;5.826;2022-10-17T09:40:33;101315.78;;;22.04;50.89
26563;BME280;14217;50.986;5.826;2022-10-17T09:45:40;101315.00;;;22.02;51.09
26563;BME280;14217;50.986;5.826;2022-10-17T09:50:45;101329.28;;;22.01;51.82
26563;BME280;14217;50.986;5.826;2022-10-17T09:56:07;101347.50;;;21.93;52.09
26563;BME280;14217;50.986;5.826;2022-10-17T10:01:20;101342.06;;;21.95;52.03
26563;BME280;14217;50.986;5.826;2022-10-17T10:06:25;101347.00;;;22.02;52.27
26563;BME280;14217;50.986;5.826;2022-10-17T10:11:51;101329.91;;;21.89;52.54
26563;BME280;14217;50.986;5.826;2022-10-17T10:16:54;101322.84;;;22.05;52.04
26563;BME280;14217;50.986;5.826;2022-10-17T10:27:01;101336.59;;;21.98;51.91
26563;BME280;14217;50.986;5.826;2022-10-17T10:32:09;101341.84;;;21.99;52.28
26563;BME280;14217;50.986;5.826;2022-10-17T10:37:18;101348.81;;;22.02;51.84
26563;BME280;14217;50.986;5.826;2022-10-17T10:42:35;101355.97;;;22.01;52.64
26563;BME280;14217;50.986;5.826;2022-10-17T10:47:38;101368.84;;;22.10;51.84
26563;BME280;14217;50.986;5.826;2022-10-17T10:53:07;101379.28;;;21.98;53.84
26563;BME280;14217;50.986;5.826;2022-10-17T11:03:34;101384.84;;;21.93;54.01
26563;BME280;14217;50.986;5.826;2022-10-17T11:08:44;101386.72;;;21.91;54.19
26563;BME280;14217;50.986;5.826;2022-10-17T11:13:53;101404.75;;;21.86;54.65
26563;BME280;14217;50.986;5.826;2022-10-17T11:19:07;101414.00;;;21.79;54.55
26563;BME280;14217;50.986;5.826;2022-10-17T11:29:17;101436.47;;;21.92;54.85
26563;BME280;14217;50.986;5.826;2022-10-17T11:34:24;101430.03;;;21.96;54.81
26563;BME280;14217;50.986;5.826;2022-10-17T11:44:36;101438.75;;;22.00;54.89
26563;BME280;14217;50.986;5.826;2022-10-17T11:49:46;101435.69;;;21.90;55.40
26563;BME280;14217;50.986;5.826;2022-10-17T11:54:56;101444.16;;;21.98;55.26
26563;BME280;14217;50.986;5.826;2022-10-17T12:06:27;101457.75;;;21.93;54.57
26563;BME280;14217;50.986;5.826;2022-10-17T12:11:39;101460.25;;;21.97;54.32
26563;BME280;14217;50.986;5.826;2022-10-17T12:16:43;101466.16;;;22.03;53.91
26563;BME280;14217;50.986;5.826;2022-10-17T12:27:34;101482.63;;;21.94;54.00
26563;BME280;14217;50.986;5.826;2022-10-17T12:32:37;101474.00;;;22.06;53.51
26563;BME280;14217;50.986;5.826;2022-10-17T12:38:32;101488.06;;;21.92;53.84
26563;BME280;14217;50.986;5.826;2022-10-17T12:43:36;101496.91;;;21.93;53.71
26563;BME280;14217;50.986;5.826;2022-10-17T12:48:57;101503.03;;;21.95;53.05
26563;BME280;14217;50.986;5.826;2022-10-17T12:54:10;101493.84;;;22.01;53.13
26563;BME280;14217;50.986;5.826;2022-10-17T12:59:25;101508.38;;;21.95;52.77
26563;BME280;14217;50.986;5.826;2022-10-17T13:04:29;101510.44;;;22.07;52.51
26563;BME280;14217;50.986;5.826;2022-10-17T13:09:36;101507.34;;;21.98;52.76
26563;BME280;14217;50.986;5.826;2022-10-17T13:14:41;101512.91;;;21.93;52.44
26563;BME280;14217;50.986;5.826;2022-10-17T13:19:44;101524.88;;;22.03;51.95
26563;BME280;14217;50.986;5.826;2022-10-17T13:24:47;101526.16;;;21.95;52.06
26563;BME280;14217;50.986;5.826;2022-10-17T13:29:50;101529.19;;;22.06;51.72
26563;BME280;14217;50.986;5.826;2022-10-17T13:35:07;101530.22;;;22.03;51.98
26563;BME280;14217;50.986;5.826;2022-10-17T13:40:30;101553.00;;;22.10;52.01
26563;BME280;14217;50.986;5.826;2022-10-17T13:45:56;101546.72;;;22.11;53.01
26563;BME280;14217;50.986;5.826;2022-10-17T13:51:22;101558.16;;;22.13;53.67
26563;BME280;14217;50.986;5.826;2022-10-17T13:56:26;101576.72;;;22.17;53.61
26563;BME280;14217;50.986;5.826;2022-10-17T14:01:30;101588.63;;;22.09;53.94
26563;BME280;14217;50.986;5.826;2022-10-17T14:06:33;101592.72;;;22.17;53.55
26563;BME280;14217;50.986;5.826;2022-10-17T14:11:40;101588.41;;;22.14;53.80
26563;BME280;14217;50.986;5.826;2022-10-17T14:16:43;101598.94;;;22.17;53.78
26563;BME280;14217;50.986;5.826;2022-10-17T14:21:48;101610.97;;;22.07;54.33
26563;BME280;14217;50.986;5.826;2022-10-17T14:26:55;101623.00;;;22.16;54.00
26563;BME280;14217;50.986;5.826;2022-10-17T14:32:02;101618.69;;;22.13;54.38
26563;BME280;14217;50.986;5.826;2022-10-17T14:42:20;101613.22;;;22.16;55.55
26563;BME280;14217;50.986;5.826;2022-10-17T14:47:26;101599.22;;;22.11;55.16
26563;BME280;14217;50.986;5.826;2022-10-17T14:52:58;101640.44;;;22.05;55.60
26563;BME280;14217;50.986;5.826;2022-10-17T14:58:01;101645.66;;;22.07;55.19
26563;BME280;14217;50.986;5.826;2022-10-17T15:03:15;101668.69;;;22.09;55.12
26563;BME280;14217;50.986;5.826;2022-10-17T15:08:22;101674.50;;;21.99;54.96
26563;BME280;14217;50.986;5.826;2022-10-17T15:13:24;101692.91;;;22.05;54.78
26563;BME280;14217;50.986;5.826;2022-10-17T15:18:30;101709.94;;;22.02;54.67
26563;BME280;14217;50.986;5.826;2022-10-17T15:23:33;101702.16;;;22.17;53.78
26563;BME280;14217;50.986;5.826;2022-10-17T15:28:34;101702.28;;;22.13;53.72
26563;BME280;14217;50.986;5.826;2022-10-17T15:33:36;101701.44;;;22.13;53.56
26563;BME280;14217;50.986;5.826;2022-10-17T15:38:38;101707.94;;;22.07;53.49
26563;BME280;14217;50.986;5.826;2022-10-17T15:43:40;101717.81;;;22.05;53.56
26563;BME280;14217;50.986;5.826;2022-10-17T15:48:42;101721.34;;;22.06;53.44
26563;BME280;14217;50.986;5.826;2022-10-17T15:53:44;101715.28;;;22.02;53.41
26563;BME280;14217;50.986;5.826;2022-10-17T15:58:47;101711.88;;;21.99;53.04
26563;BME280;14217;50.986;5.826;2022-10-17T16:03:49;101701.00;;;22.03;53.65
26563;BME280;14217;50.986;5.826;2022-10-17T16:08:52;101699.25;;;22.23;53.35
26563;BME280;14217;50.986;5.826;2022-10-17T16:13:56;101722.25;;;22.25;53.89
26563;BME280;14217;50.986;5.826;2022-10-17T16:18:59;101720.78;;;22.18;53.82
26563;BME280;14217;50.986;5.826;2022-10-17T16:24:03;101719.91;;;22.18;54.03
26563;BME280;14217;50.986;5.826;2022-10-17T16:29:06;101725.19;;;22.19;53.73
26563;BME280;14217;50.986;5.826;2022-10-17T16:34:09;101737.59;;;22.20;53.59
26563;BME280;14217;50.986;5.826;2022-10-17T16:39:13;101736.66;;;22.21;53.41
26563;BME280;14217;50.986;5.826;2022-10-17T16:44:16;101748.47;;;22.16;53.74
26563;BME280;14217;50.986;5.826;2022-10-17T16:49:18;101747.75;;;22.12;54.07
26563;BME280;14217;50.986;5.826;2022-10-17T16:54:20;101765.72;;;22.29;53.58
26563;BME280;14217;50.986;5.826;2022-10-17T16:59:23;101762.91;;;22.11;53.74
26563;BME280;14217;50.986;5.826;2022-10-17T17:04:25;101770.78;;;21.94;54.19
26563;BME280;14217;50.986;5.826;2022-10-17T17:09:27;101784.13;;;21.94;54.04
26563;BME280;14217;50.986;5.826;2022-10-17T17:14:29;101783.22;;;21.95;53.82
26563;BME280;14217;50.986;5.826;2022-10-17T17:19:31;101778.53;;;22.00;53.63
26563;BME280;14217;50.986;5.826;2022-10-17T17:24:32;101789.63;;;21.91;53.85
26563;BME280;14217;50.986;5.826;2022-10-17T17:29:34;101794.00;;;21.92;53.59
26563;BME280;14217;50.986;5.826;2022-10-17T17:34:36;101781.66;;;21.89;53.67
26563;BME280;14217;50.986;5.826;2022-10-17T17:39:38;101783.13;;;21.97;53.23
26563;BME280;14217;50.986;5.826;2022-10-17T17:44:41;101786.34;;;21.84;53.80
26563;BME280;14217;50.986;5.826;2022-10-17T17:49:43;101791.47;;;22.09;52.73
26563;BME280;14217;50.986;5.826;2022-10-17T17:54:45;101800.34;;;21.89;53.20
26563;BME280;14217;50.986;5.826;2022-10-17T17:59:47;101804.22;;;21.82;53.21
26563;BME280;14217;50.986;5.826;2022-10-17T18:04:50;101811.16;;;21.86;53.27
26563;BME280;14217;50.986;5.826;2022-10-17T18:09:52;101816.41;;;21.88;52.99
26563;BME280;14217;50.986;5.826;2022-10-17T18:14:54;101825.38;;;21.87;53.11
26563;BME280;14217;50.986;5.826;2022-10-17T18:19:56;101824.81;;;21.79;53.02
26563;BME280;14217;50.986;5.826;2022-10-17T18:24:58;101821.59;;;21.92;52.48
26563;BME280;14217;50.986;5.826;2022-10-17T18:30:00;101829.28;;;21.99;52.47
26563;BME280;14217;50.986;5.826;2022-10-17T18:35:02;101825.75;;;21.98;52.31
26563;BME280;14217;50.986;5.826;2022-10-17T18:40:04;101823.09;;;21.98;52.31
26563;BME280;14217;50.986;5.826;2022-10-17T18:45:07;101822.72;;;22.07;51.98
26563;BME280;14217;50.986;5.826;2022-10-17T18:50:09;101818.81;;;21.94;52.25
26563;BME280;14217;50.986;5.826;2022-10-17T18:55:10;101826.50;;;22.02;51.96
26563;BME280;14217;50.986;5.826;2022-10-17T19:00:12;101838.91;;;22.03;51.79
26563;BME280;14217;50.986;5.826;2022-10-17T19:05:14;101838.91;;;22.03;52.11
26563;BME280;14217;50.986;5.826;2022-10-17T19:10:16;101849.50;;;22.04;52.00
26563;BME280;14217;50.986;5.826;2022-10-17T19:15:18;101855.00;;;22.01;51.91
26563;BME280;14217;50.986;5.826;2022-10-17T19:20:26;101861.47;;;21.96;51.81
26563;BME280;14217;50.986;5.826;2022-10-17T19:25:28;101868.34;;;22.01;51.57
26563;BME280;14217;50.986;5.826;2022-10-17T19:30:31;101871.66;;;22.06;51.75
26563;BME280;14217;50.986;5.826;2022-10-17T19:35:32;101869.75;;;22.10;51.54
26563;BME280;14217;50.986;5.826;2022-10-17T19:40:39;101858.84;;;22.15;51.31
26563;BME280;14217;50.986;5.826;2022-10-17T19:45:41;101848.38;;;22.10;51.24
26563;BME280;14217;50.986;5.826;2022-10-17T19:50:44;101857.53;;;22.04;51.56
26563;BME280;14217;50.986;5.826;2022-10-17T19:55:46;101855.00;;;22.01;51.43
26563;BME280;14217;50.986;5.826;2022-10-17T20:00:49;101846.63;;;22.09;51.37
26563;BME280;14217;50.986;5.826;2022-10-17T20:05:52;101845.38;;;21.97;51.56
26563;BME280;14217;50.986;5.826;2022-10-17T20:10:54;101836.75;;;22.11;51.36
26563;BME280;14217;50.986;5.826;2022-10-17T20:15:57;101832.91;;;21.98;51.59
26563;BME280;14217;50.986;5.826;2022-10-17T20:21:08;101849.41;;;22.07;51.47
26563;BME280;14217;50.986;5.826;2022-10-17T20:26:18;101866.06;;;21.92;51.44
26563;BME280;14217;50.986;5.826;2022-10-17T20:31:42;101867.19;;;22.07;50.98
26563;BME280;14217;50.986;5.826;2022-10-17T20:36:45;101859.59;;;22.18;50.90
26563;BME280;14217;50.986;5.826;2022-10-17T20:41:47;101876.75;;;22.12;52.03
26563;BME280;14217;50.986;5.826;2022-10-17T20:46:49;101873.66;;;22.22;52.44
26563;BME280;14217;50.986;5.826;2022-10-17T20:52:02;101865.06;;;22.15;53.00
26563;BME280;14217;50.986;5.826;2022-10-17T20:57:04;101870.84;;;22.26;52.94
26563;BME280;14217;50.986;5.826;2022-10-17T21:02:10;101872.22;;;22.15;53.11
26563;BME280;14217;50.986;5.826;2022-10-17T21:07:12;101869.53;;;22.15;53.07
26563;BME280;14217;50.986;5.826;2022-10-17T21:12:14;101876.34;;;22.22;52.75
26563;BME280;14217;50.986;5.826;2022-10-17T21:17:36;101866.47;;;22.03;52.74
26563;BME280;14217;50.986;5.826;2022-10-17T21:22:38;101876.16;;;22.06;52.59
26563;BME280;14217;50.986;5.826;2022-10-17T21:27:40;101876.91;;;22.09;52.42
26563;BME280;14217;50.986;5.826;2022-10-17T21:32:42;101890.50;;;22.03;52.30
26563;BME280;14217;50.986;5.826;2022-10-17T21:37:52;101883.81;;;22.13;51.98
26563;BME280;14217;50.986;5.826;2022-10-17T21:42:54;101886.94;;;22.03;52.12
26563;BME280;14217;50.986;5.826;2022-10-17T21:47:56;101881.69;;;22.01;52.41
26563;BME280;14217;50.986;5.826;2022-10-17T21:53:14;101880.47;;;22.08;52.29
26563;BME280;14217;50.986;5.826;2022-10-17T21:58:19;101895.16;;;21.98;52.21
26563;BME280;14217;50.986;5.826;2022-10-17T22:03:21;101876.16;;;22.06;51.90
26563;BME280;14217;50.986;5.826;2022-10-17T22:08:23;101895.09;;;22.00;51.91
26563;BME280;14217;50.986;5.826;2022-10-17T22:13:26;101892.22;;;22.04;51.95
26563;BME280;14217;50.986;5.826;2022-10-17T22:18:28;101902.25;;;21.99;51.90
26563;BME280;14217;50.986;5.826;2022-10-17T22:23:30;101904.22;;;21.94;52.16
26563;BME280;14217;50.986;5.826;2022-10-17T22:28:32;101911.03;;;22.01;51.74
26563;BME280;14217;50.986;5.826;2022-10-17T22:33:36;101910.66;;;22.10;51.46
26563;BME280;14217;50.986;5.826;2022-10-17T22:38:38;101911.34;;;21.93;51.75
26563;BME280;14217;50.986;5.826;2022-10-17T22:43:40;101927.66;;;22.08;51.64
26563;BME280;14217;50.986;5.826;2022-10-17T22:48:42;101934.13;;;22.02;51.81
26563;BME280;14217;50.986;5.826;2022-10-17T22:53:44;101929.38;;;22.09;51.52
26563;BME280;14217;50.986;5.826;2022-10-17T22:58:46;101943.06;;;22.22;51.13
26563;BME280;14217;50.986;5.826;2022-10-17T23:03:49;101932.00;;;22.10;51.44
26563;BME280;14217;50.986;5.826;2022-10-17T23:08:51;101932.16;;;22.07;51.16
26563;BME280;14217;50.986;5.826;2022-10-17T23:13:53;101927.97;;;22.00;51.43
26563;BME280;14217;50.986;5.826;2022-10-17T23:18:56;101922.13;;;22.12;51.17
26563;BME280;14217;50.986;5.826;2022-10-17T23:23:58;101926.41;;;22.17;50.80
26563;BME280;14217;50.986;5.826;2022-10-17T23:29:00;101917.63;;;22.13;51.13
26563;BME280;14217;50.986;5.826;2022-10-17T23:34:02;101919.84;;;22.03;51.12
26563;BME280;14217;50.986;5.826;2022-10-17T23:39:05;101916.13;;;22.07;51.16
26563;BME280;14217;50.986;5.826;2022-10-17T23:44:08;101913.31;;;22.10;51.25
26563;BME280;14217;50.986;5.826;2022-10-17T23:49:10;101914.13;;;22.12;50.98
26563;BME280;14217;50.986;5.826;2022-10-17T23:54:12;101924.25;;;22.04;51.20
26563;BME280;14217;50.986;5.826;2022-10-17T23:59:14;101917.59;;;22.15;51.07
